Rock Springs Sweetwater County Airport Rock Springs US
ICAO: KRKS
IATA: RKS
Category: Medium
Scheduled Services: Yes

Elevation: 6764 ft
TransAlt. 18000 ft.

Airport Communications:
ASOS:118.375
CASPER RDO:122.6
CTAF/UNICOM:122.8

KRKS Zoom In..

Runways:

(A) RW 03 length 5228 ft width 75 ft
---- / hdg 32

(B) RW 09 length 10000 ft width 150 ft
---- / hdg 90

(C) RW 21 length 5228 ft width 75 ft
---- / hdg 212

(D) RW 27 length 10000 ft width 150 ft
ILS 109.30 / hdg 270

Location; KRKS
Day. 07 / Time. 18.54 Zulu
* Altimeter: 30.08
* Temperature: 13° c. 55.4°f.
* Wind from: 270° Speed 18 kn with Gusts up to 27 kn.
Dewpoint: -04° c.
Visibility: 10 Statute Miles.
Clouds: Few 6500 ft.

KRKS 071854Z AUTO 27018G27KT 10SM FEW065 13/M04 A3008 RMK AO2 PK WND 25029/1833 SLP146 T01281039


Wind From 270°
Speed 18 kn.

 
 
jpsmedia worldairports.se 2020   terms of use